sensor_id;sensor_type;location;lat;lon;timestamp;P1;durP1;ratioP1;P2;durP2;ratioP2
28003;SDS011;15330;51.234;6.754;2024-03-08T00:00:13;38.30;;;22.23;;
28003;SDS011;15330;51.234;6.754;2024-03-08T00:02:41;39.13;;;23.00;;
28003;SDS011;15330;51.234;6.754;2024-03-08T00:05:07;36.53;;;23.63;;
28003;SDS011;15330;51.234;6.754;2024-03-08T00:07:40;33.67;;;21.52;;
28003;SDS011;15330;51.234;6.754;2024-03-08T00:10:07;36.00;;;22.85;;
28003;SDS011;15330;51.234;6.754;2024-03-08T00:12:37;31.55;;;20.92;;
28003;SDS011;15330;51.234;6.754;2024-03-08T00:15:04;34.10;;;21.48;;
28003;SDS011;15330;51.234;6.754;2024-03-08T00:17:29;37.85;;;22.00;;
28003;SDS011;15330;51.234;6.754;2024-03-08T00:19:56;37.25;;;23.02;;
28003;SDS011;15330;51.234;6.754;2024-03-08T00:22:22;33.55;;;22.23;;
28003;SDS011;15330;51.234;6.754;2024-03-08T00:24:47;35.30;;;22.83;;
28003;SDS011;15330;51.234;6.754;2024-03-08T00:27:15;35.80;;;22.15;;
28003;SDS011;15330;51.234;6.754;2024-03-08T00:29:41;35.70;;;23.25;;
28003;SDS011;15330;51.234;6.754;2024-03-08T00:32:06;40.05;;;22.38;;
28003;SDS011;15330;51.234;6.754;2024-03-08T00:34:34;37.40;;;23.10;;
28003;SDS011;15330;51.234;6.754;2024-03-08T00:37:01;35.35;;;21.90;;
28003;SDS011;15330;51.234;6.754;2024-03-08T00:39:27;39.15;;;22.48;;
28003;SDS011;15330;51.234;6.754;2024-03-08T00:41:52;36.58;;;21.98;;
28003;SDS011;15330;51.234;6.754;2024-03-08T00:44:17;35.70;;;22.17;;
28003;SDS011;15330;51.234;6.754;2024-03-08T00:46:43;38.47;;;23.55;;
28003;SDS011;15330;51.234;6.754;2024-03-08T00:49:09;36.95;;;22.30;;
28003;SDS011;15330;51.234;6.754;2024-03-08T00:51:34;39.00;;;23.35;;
28003;SDS011;15330;51.234;6.754;2024-03-08T00:53:59;37.80;;;22.90;;
28003;SDS011;15330;51.234;6.754;2024-03-08T00:56:25;39.95;;;23.85;;
28003;SDS011;15330;51.234;6.754;2024-03-08T00:58:50;36.97;;;21.40;;
28003;SDS011;15330;51.234;6.754;2024-03-08T01:01:16;40.70;;;23.33;;
28003;SDS011;15330;51.234;6.754;2024-03-08T01:03:43;40.85;;;22.85;;
28003;SDS011;15330;51.234;6.754;2024-03-08T01:06:09;37.78;;;23.10;;
28003;SDS011;15330;51.234;6.754;2024-03-08T01:08:34;38.03;;;22.75;;
28003;SDS011;15330;51.234;6.754;2024-03-08T01:11:03;38.83;;;24.27;;
28003;SDS011;15330;51.234;6.754;2024-03-08T01:13:31;37.70;;;22.00;;
28003;SDS011;15330;51.234;6.754;2024-03-08T01:15:56;43.13;;;23.85;;
28003;SDS011;15330;51.234;6.754;2024-03-08T01:18:22;39.92;;;23.00;;
28003;SDS011;15330;51.234;6.754;2024-03-08T01:20:47;35.33;;;21.73;;
28003;SDS011;15330;51.234;6.754;2024-03-08T01:23:13;39.17;;;22.98;;
28003;SDS011;15330;51.234;6.754;2024-03-08T01:25:38;40.88;;;23.25;;
28003;SDS011;15330;51.234;6.754;2024-03-08T01:28:04;34.58;;;22.23;;
28003;SDS011;15330;51.234;6.754;2024-03-08T01:30:30;37.55;;;24.20;;
28003;SDS011;15330;51.234;6.754;2024-03-08T01:32:57;38.20;;;21.88;;
28003;SDS011;15330;51.234;6.754;2024-03-08T01:35:23;41.58;;;23.17;;
28003;SDS011;15330;51.234;6.754;2024-03-08T01:37:48;37.70;;;22.65;;
28003;SDS011;15330;51.234;6.754;2024-03-08T01:40:14;42.42;;;23.20;;
28003;SDS011;15330;51.234;6.754;2024-03-08T01:42:41;42.95;;;24.02;;
28003;SDS011;15330;51.234;6.754;2024-03-08T01:45:07;38.15;;;23.15;;
28003;SDS011;15330;51.234;6.754;2024-03-08T01:47:33;42.70;;;23.73;;
28003;SDS011;15330;51.234;6.754;2024-03-08T01:49:59;43.25;;;23.50;;
28003;SDS011;15330;51.234;6.754;2024-03-08T01:52:26;40.40;;;23.20;;
28003;SDS011;15330;51.234;6.754;2024-03-08T01:54:53;38.95;;;23.08;;
28003;SDS011;15330;51.234;6.754;2024-03-08T01:57:20;40.42;;;23.90;;
28003;SDS011;15330;51.234;6.754;2024-03-08T01:59:46;43.88;;;23.95;;
28003;SDS011;15330;51.234;6.754;2024-03-08T02:02:11;42.83;;;23.98;;
28003;SDS011;15330;51.234;6.754;2024-03-08T02:04:42;42.90;;;24.67;;
28003;SDS011;15330;51.234;6.754;2024-03-08T02:07:08;41.70;;;23.55;;
28003;SDS011;15330;51.234;6.754;2024-03-08T02:09:33;41.13;;;23.75;;
28003;SDS011;15330;51.234;6.754;2024-03-08T02:11:59;38.47;;;22.42;;
28003;SDS011;15330;51.234;6.754;2024-03-08T02:14:24;40.38;;;23.20;;
28003;SDS011;15330;51.234;6.754;2024-03-08T02:16:50;39.88;;;23.45;;
28003;SDS011;15330;51.234;6.754;2024-03-08T02:19:16;42.50;;;24.10;;
28003;SDS011;15330;51.234;6.754;2024-03-08T02:21:42;39.67;;;24.27;;
28003;SDS011;15330;51.234;6.754;2024-03-08T02:24:08;43.45;;;23.48;;
28003;SDS011;15330;51.234;6.754;2024-03-08T02:26:34;44.80;;;23.52;;
28003;SDS011;15330;51.234;6.754;2024-03-08T02:28:59;37.60;;;22.85;;
28003;SDS011;15330;51.234;6.754;2024-03-08T02:31:24;42.33;;;23.25;;
28003;SDS011;15330;51.234;6.754;2024-03-08T02:33:50;41.35;;;24.88;;
28003;SDS011;15330;51.234;6.754;2024-03-08T02:36:15;42.92;;;23.52;;
28003;SDS011;15330;51.234;6.754;2024-03-08T02:38:41;38.55;;;23.42;;
28003;SDS011;15330;51.234;6.754;2024-03-08T02:41:06;45.05;;;25.10;;
28003;SDS011;15330;51.234;6.754;2024-03-08T02:43:32;40.10;;;23.77;;
28003;SDS011;15330;51.234;6.754;2024-03-08T02:45:58;47.55;;;26.15;;
28003;SDS011;15330;51.234;6.754;2024-03-08T02:48:24;39.25;;;23.85;;
28003;SDS011;15330;51.234;6.754;2024-03-08T02:50:50;47.72;;;24.83;;
28003;SDS011;15330;51.234;6.754;2024-03-08T02:53:16;37.65;;;23.60;;
28003;SDS011;15330;51.234;6.754;2024-03-08T02:55:43;44.80;;;24.85;;
28003;SDS011;15330;51.234;6.754;2024-03-08T02:58:09;44.40;;;24.50;;
28003;SDS011;15330;51.234;6.754;2024-03-08T03:00:35;44.28;;;23.83;;
28003;SDS011;15330;51.234;6.754;2024-03-08T03:03:01;43.50;;;24.45;;
28003;SDS011;15330;51.234;6.754;2024-03-08T03:05:28;45.28;;;24.70;;
28003;SDS011;15330;51.234;6.754;2024-03-08T03:07:54;43.40;;;23.80;;
28003;SDS011;15330;51.234;6.754;2024-03-08T03:10:20;40.58;;;24.00;;
28003;SDS011;15330;51.234;6.754;2024-03-08T03:12:47;46.22;;;25.20;;
28003;SDS011;15330;51.234;6.754;2024-03-08T03:15:16;43.05;;;24.27;;
28003;SDS011;15330;51.234;6.754;2024-03-08T03:17:46;41.72;;;23.52;;
28003;SDS011;15330;51.234;6.754;2024-03-08T03:20:12;45.17;;;25.02;;
28003;SDS011;15330;51.234;6.754;2024-03-08T03:22:39;39.35;;;22.70;;
28003;SDS011;15330;51.234;6.754;2024-03-08T03:25:06;41.40;;;24.52;;
28003;SDS011;15330;51.234;6.754;2024-03-08T03:27:32;49.47;;;24.98;;
28003;SDS011;15330;51.234;6.754;2024-03-08T03:29:58;42.03;;;24.63;;
28003;SDS011;15330;51.234;6.754;2024-03-08T03:32:44;42.20;;;24.35;;
28003;SDS011;15330;51.234;6.754;2024-03-08T03:35:12;47.08;;;24.48;;
28003;SDS011;15330;51.234;6.754;2024-03-08T03:37:41;44.03;;;24.58;;
28003;SDS011;15330;51.234;6.754;2024-03-08T03:40:16;39.80;;;23.45;;
28003;SDS011;15330;51.234;6.754;2024-03-08T03:42:43;39.22;;;23.20;;
28003;SDS011;15330;51.234;6.754;2024-03-08T03:45:10;43.75;;;23.98;;
28003;SDS011;15330;51.234;6.754;2024-03-08T03:47:36;43.03;;;23.45;;
28003;SDS011;15330;51.234;6.754;2024-03-08T03:50:03;39.85;;;24.10;;
28003;SDS011;15330;51.234;6.754;2024-03-08T03:52:29;41.80;;;24.27;;
28003;SDS011;15330;51.234;6.754;2024-03-08T03:54:55;40.97;;;24.13;;
28003;SDS011;15330;51.234;6.754;2024-03-08T03:57:21;40.90;;;22.55;;
28003;SDS011;15330;51.234;6.754;2024-03-08T03:59:48;41.05;;;23.17;;
28003;SDS011;15330;51.234;6.754;2024-03-08T04:02:13;44.53;;;24.05;;
28003;SDS011;15330;51.234;6.754;2024-03-08T04:04:39;42.92;;;24.58;;
28003;SDS011;15330;51.234;6.754;2024-03-08T04:07:05;40.97;;;23.23;;
28003;SDS011;15330;51.234;6.754;2024-03-08T04:09:31;44.80;;;24.42;;
28003;SDS011;15330;51.234;6.754;2024-03-08T04:11:56;43.63;;;24.98;;
28003;SDS011;15330;51.234;6.754;2024-03-08T04:14:22;48.45;;;25.00;;
28003;SDS011;15330;51.234;6.754;2024-03-08T04:16:48;42.47;;;23.60;;
28003;SDS011;15330;51.234;6.754;2024-03-08T04:19:14;45.65;;;25.52;;
28003;SDS011;15330;51.234;6.754;2024-03-08T04:21:39;42.33;;;24.13;;
28003;SDS011;15330;51.234;6.754;2024-03-08T04:24:05;40.10;;;23.33;;
28003;SDS011;15330;51.234;6.754;2024-03-08T04:26:30;47.10;;;24.75;;
28003;SDS011;15330;51.234;6.754;2024-03-08T04:28:56;44.33;;;24.38;;
28003;SDS011;15330;51.234;6.754;2024-03-08T04:31:22;40.10;;;23.05;;
28003;SDS011;15330;51.234;6.754;2024-03-08T04:33:47;40.83;;;23.23;;
28003;SDS011;15330;51.234;6.754;2024-03-08T04:36:13;41.65;;;25.00;;
28003;SDS011;15330;51.234;6.754;2024-03-08T04:38:39;40.33;;;23.92;;
28003;SDS011;15330;51.234;6.754;2024-03-08T04:41:06;42.42;;;23.58;;
28003;SDS011;15330;51.234;6.754;2024-03-08T04:43:31;41.42;;;23.77;;
28003;SDS011;15330;51.234;6.754;2024-03-08T04:45:57;41.83;;;23.40;;
28003;SDS011;15330;51.234;6.754;2024-03-08T04:48:23;45.67;;;24.08;;
28003;SDS011;15330;51.234;6.754;2024-03-08T04:50:52;41.58;;;24.45;;
28003;SDS011;15330;51.234;6.754;2024-03-08T04:53:18;41.58;;;23.50;;
28003;SDS011;15330;51.234;6.754;2024-03-08T04:55:44;42.08;;;24.38;;
28003;SDS011;15330;51.234;6.754;2024-03-08T04:58:09;41.15;;;22.27;;
28003;SDS011;15330;51.234;6.754;2024-03-08T05:00:35;44.65;;;23.48;;
28003;SDS011;15330;51.234;6.754;2024-03-08T05:03:00;39.53;;;22.83;;
28003;SDS011;15330;51.234;6.754;2024-03-08T05:05:26;41.55;;;23.83;;
28003;SDS011;15330;51.234;6.754;2024-03-08T05:07:53;40.90;;;22.95;;
28003;SDS011;15330;51.234;6.754;2024-03-08T05:10:19;42.85;;;24.60;;
28003;SDS011;15330;51.234;6.754;2024-03-08T05:12:44;43.83;;;24.55;;
28003;SDS011;15330;51.234;6.754;2024-03-08T05:15:10;47.70;;;25.30;;
28003;SDS011;15330;51.234;6.754;2024-03-08T05:17:35;42.97;;;23.23;;
28003;SDS011;15330;51.234;6.754;2024-03-08T05:20:01;40.00;;;21.90;;
28003;SDS011;15330;51.234;6.754;2024-03-08T05:22:27;39.72;;;22.15;;
28003;SDS011;15330;51.234;6.754;2024-03-08T05:24:53;46.58;;;23.77;;
28003;SDS011;15330;51.234;6.754;2024-03-08T05:27:18;40.72;;;23.30;;
28003;SDS011;15330;51.234;6.754;2024-03-08T05:29:43;45.03;;;22.70;;
28003;SDS011;15330;51.234;6.754;2024-03-08T05:32:09;40.70;;;23.45;;
28003;SDS011;15330;51.234;6.754;2024-03-08T05:34:35;40.63;;;23.10;;
28003;SDS011;15330;51.234;6.754;2024-03-08T05:37:00;44.20;;;24.70;;
28003;SDS011;15330;51.234;6.754;2024-03-08T05:39:27;43.22;;;24.13;;
28003;SDS011;15330;51.234;6.754;2024-03-08T05:41:52;45.45;;;24.00;;
28003;SDS011;15330;51.234;6.754;2024-03-08T05:44:17;46.25;;;24.17;;
28003;SDS011;15330;51.234;6.754;2024-03-08T05:46:43;43.85;;;23.10;;
28003;SDS011;15330;51.234;6.754;2024-03-08T05:49:09;44.67;;;23.67;;
28003;SDS011;15330;51.234;6.754;2024-03-08T05:51:35;45.80;;;23.83;;
28003;SDS011;15330;51.234;6.754;2024-03-08T05:54:11;44.65;;;24.70;;
28003;SDS011;15330;51.234;6.754;2024-03-08T05:56:38;43.38;;;24.63;;
28003;SDS011;15330;51.234;6.754;2024-03-08T05:59:07;43.53;;;24.27;;
28003;SDS011;15330;51.234;6.754;2024-03-08T06:01:33;45.85;;;23.38;;
28003;SDS011;15330;51.234;6.754;2024-03-08T06:04:01;43.90;;;23.88;;
28003;SDS011;15330;51.234;6.754;2024-03-08T06:06:27;42.63;;;23.67;;
28003;SDS011;15330;51.234;6.754;2024-03-08T06:08:53;46.33;;;24.33;;
28003;SDS011;15330;51.234;6.754;2024-03-08T06:11:19;45.72;;;25.20;;
28003;SDS011;15330;51.234;6.754;2024-03-08T06:13:45;43.88;;;23.75;;
28003;SDS011;15330;51.234;6.754;2024-03-08T06:16:11;46.00;;;26.13;;
28003;SDS011;15330;51.234;6.754;2024-03-08T06:18:37;46.03;;;24.42;;
28003;SDS011;15330;51.234;6.754;2024-03-08T06:21:03;46.33;;;24.40;;
28003;SDS011;15330;51.234;6.754;2024-03-08T06:23:32;49.92;;;25.45;;
28003;SDS011;15330;51.234;6.754;2024-03-08T06:25:58;43.70;;;23.95;;
28003;SDS011;15330;51.234;6.754;2024-03-08T06:28:24;48.40;;;26.08;;
28003;SDS011;15330;51.234;6.754;2024-03-08T06:30:49;44.90;;;25.55;;
28003;SDS011;15330;51.234;6.754;2024-03-08T06:33:16;40.67;;;23.90;;
28003;SDS011;15330;51.234;6.754;2024-03-08T06:35:42;46.10;;;23.52;;
28003;SDS011;15330;51.234;6.754;2024-03-08T06:38:07;48.40;;;25.95;;
28003;SDS011;15330;51.234;6.754;2024-03-08T06:40:33;43.40;;;24.60;;
28003;SDS011;15330;51.234;6.754;2024-03-08T06:42:58;48.75;;;25.83;;
28003;SDS011;15330;51.234;6.754;2024-03-08T06:45:24;40.78;;;25.98;;
28003;SDS011;15330;51.234;6.754;2024-03-08T06:47:50;46.00;;;24.85;;
28003;SDS011;15330;51.234;6.754;2024-03-08T06:50:16;44.88;;;23.00;;
28003;SDS011;15330;51.234;6.754;2024-03-08T06:52:42;44.55;;;24.20;;
28003;SDS011;15330;51.234;6.754;2024-03-08T06:55:08;38.58;;;23.88;;
28003;SDS011;15330;51.234;6.754;2024-03-08T06:57:37;44.53;;;23.73;;
28003;SDS011;15330;51.234;6.754;2024-03-08T07:00:06;40.13;;;24.38;;
28003;SDS011;15330;51.234;6.754;2024-03-08T07:02:35;40.22;;;22.98;;
28003;SDS011;15330;51.234;6.754;2024-03-08T07:05:00;38.17;;;24.02;;
28003;SDS011;15330;51.234;6.754;2024-03-08T07:07:26;41.03;;;24.95;;
28003;SDS011;15330;51.234;6.754;2024-03-08T07:09:52;40.20;;;24.40;;
28003;SDS011;15330;51.234;6.754;2024-03-08T07:12:17;38.28;;;23.35;;
28003;SDS011;15330;51.234;6.754;2024-03-08T07:14:43;37.63;;;23.35;;
28003;SDS011;15330;51.234;6.754;2024-03-08T07:17:10;37.03;;;23.30;;
28003;SDS011;15330;51.234;6.754;2024-03-08T07:19:36;40.38;;;24.85;;
28003;SDS011;15330;51.234;6.754;2024-03-08T07:22:03;38.17;;;24.95;;
28003;SDS011;15330;51.234;6.754;2024-03-08T07:24:30;40.08;;;23.73;;
28003;SDS011;15330;51.234;6.754;2024-03-08T07:27:13;35.80;;;22.90;;
28003;SDS011;15330;51.234;6.754;2024-03-08T07:29:39;38.88;;;24.63;;
28003;SDS011;15330;51.234;6.754;2024-03-08T07:32:05;41.00;;;25.85;;
28003;SDS011;15330;51.234;6.754;2024-03-08T07:34:50;41.03;;;26.23;;
28003;SDS011;15330;51.234;6.754;2024-03-08T07:37:19;38.45;;;24.27;;
28003;SDS011;15330;51.234;6.754;2024-03-08T07:39:45;42.78;;;26.17;;
28003;SDS011;15330;51.234;6.754;2024-03-08T07:42:11;38.22;;;24.27;;
28003;SDS011;15330;51.234;6.754;2024-03-08T07:44:37;36.88;;;23.73;;
28003;SDS011;15330;51.234;6.754;2024-03-08T07:47:03;39.05;;;25.58;;
28003;SDS011;15330;51.234;6.754;2024-03-08T07:49:29;43.00;;;25.30;;
28003;SDS011;15330;51.234;6.754;2024-03-08T07:51:55;42.28;;;24.85;;
28003;SDS011;15330;51.234;6.754;2024-03-08T07:54:23;37.83;;;23.95;;
28003;SDS011;15330;51.234;6.754;2024-03-08T07:56:48;40.53;;;25.50;;
28003;SDS011;15330;51.234;6.754;2024-03-08T07:59:14;39.38;;;23.88;;
28003;SDS011;15330;51.234;6.754;2024-03-08T08:01:39;38.22;;;23.05;;
28003;SDS011;15330;51.234;6.754;2024-03-08T08:04:05;39.15;;;24.17;;
28003;SDS011;15330;51.234;6.754;2024-03-08T08:06:31;37.00;;;23.60;;
28003;SDS011;15330;51.234;6.754;2024-03-08T08:09:00;37.60;;;23.83;;
28003;SDS011;15330;51.234;6.754;2024-03-08T08:11:26;40.10;;;25.52;;
28003;SDS011;15330;51.234;6.754;2024-03-08T08:13:55;36.53;;;23.17;;
28003;SDS011;15330;51.234;6.754;2024-03-08T08:16:24;37.83;;;24.38;;
28003;SDS011;15330;51.234;6.754;2024-03-08T08:18:50;34.90;;;22.80;;
28003;SDS011;15330;51.234;6.754;2024-03-08T08:21:17;36.80;;;23.65;;
28003;SDS011;15330;51.234;6.754;2024-03-08T08:23:43;36.53;;;24.20;;
28003;SDS011;15330;51.234;6.754;2024-03-08T08:26:10;33.15;;;23.60;;
28003;SDS011;15330;51.234;6.754;2024-03-08T08:28:36;34.85;;;23.25;;
28003;SDS011;15330;51.234;6.754;2024-03-08T08:31:01;33.15;;;23.60;;
28003;SDS011;15330;51.234;6.754;2024-03-08T08:33:29;36.58;;;24.52;;
28003;SDS011;15330;51.234;6.754;2024-03-08T08:35:54;30.90;;;22.02;;
28003;SDS011;15330;51.234;6.754;2024-03-08T08:38:20;31.10;;;24.13;;
28003;SDS011;15330;51.234;6.754;2024-03-08T08:40:46;29.45;;;22.70;;
28003;SDS011;15330;51.234;6.754;2024-03-08T08:43:12;31.42;;;22.08;;
28003;SDS011;15330;51.234;6.754;2024-03-08T08:45:39;30.90;;;22.42;;
28003;SDS011;15330;51.234;6.754;2024-03-08T08:48:05;28.95;;;22.02;;
28003;SDS011;15330;51.234;6.754;2024-03-08T08:50:31;28.48;;;22.05;;
28003;SDS011;15330;51.234;6.754;2024-03-08T08:52:57;28.20;;;22.48;;
28003;SDS011;15330;51.234;6.754;2024-03-08T08:55:23;27.48;;;20.80;;
28003;SDS011;15330;51.234;6.754;2024-03-08T08:57:52;27.85;;;20.08;;
28003;SDS011;15330;51.234;6.754;2024-03-08T09:00:18;25.15;;;19.73;;
28003;SDS011;15330;51.234;6.754;2024-03-08T09:02:45;26.73;;;21.23;;
28003;SDS011;15330;51.234;6.754;2024-03-08T09:05:12;26.80;;;21.23;;
28003;SDS011;15330;51.234;6.754;2024-03-08T09:07:37;23.58;;;19.90;;
28003;SDS011;15330;51.234;6.754;2024-03-08T09:10:03;26.33;;;21.48;;
28003;SDS011;15330;51.234;6.754;2024-03-08T09:12:29;22.90;;;19.30;;
28003;SDS011;15330;51.234;6.754;2024-03-08T09:14:54;25.00;;;18.88;;
28003;SDS011;15330;51.234;6.754;2024-03-08T09:17:19;24.98;;;19.73;;
28003;SDS011;15330;51.234;6.754;2024-03-08T09:19:49;22.25;;;19.77;;
28003;SDS011;15330;51.234;6.754;2024-03-08T09:22:15;23.10;;;19.52;;
28003;SDS011;15330;51.234;6.754;2024-03-08T09:24:40;23.08;;;18.65;;
28003;SDS011;15330;51.234;6.754;2024-03-08T09:27:08;21.05;;;18.65;;
28003;SDS011;15330;51.234;6.754;2024-03-08T09:29:34;24.90;;;20.73;;
28003;SDS011;15330;51.234;6.754;2024-03-08T09:32:00;24.35;;;20.17;;
28003;SDS011;15330;51.234;6.754;2024-03-08T09:34:25;26.27;;;19.77;;
28003;SDS011;15330;51.234;6.754;2024-03-08T09:36:51;21.48;;;19.15;;
28003;SDS011;15330;51.234;6.754;2024-03-08T09:39:17;23.95;;;20.00;;
28003;SDS011;15330;51.234;6.754;2024-03-08T09:41:46;24.00;;;19.35;;
28003;SDS011;15330;51.234;6.754;2024-03-08T09:44:15;26.00;;;19.38;;
28003;SDS011;15330;51.234;6.754;2024-03-08T09:46:41;24.63;;;19.02;;
28003;SDS011;15330;51.234;6.754;2024-03-08T09:49:07;26.05;;;20.60;;
28003;SDS011;15330;51.234;6.754;2024-03-08T09:51:34;22.60;;;20.02;;
28003;SDS011;15330;51.234;6.754;2024-03-08T09:54:01;27.92;;;20.63;;
28003;SDS011;15330;51.234;6.754;2024-03-08T09:56:29;22.98;;;20.45;;
28003;SDS011;15330;51.234;6.754;2024-03-08T09:58:59;22.90;;;19.00;;
28003;SDS011;15330;51.234;6.754;2024-03-08T10:01:36;24.80;;;21.35;;
28003;SDS011;15330;51.234;6.754;2024-03-08T10:04:03;22.63;;;19.65;;
28003;SDS011;15330;51.234;6.754;2024-03-08T10:06:29;23.35;;;19.58;;
28003;SDS011;15330;51.234;6.754;2024-03-08T10:08:56;24.52;;;20.85;;
28003;SDS011;15330;51.234;6.754;2024-03-08T10:11:22;22.20;;;19.70;;
28003;SDS011;15330;51.234;6.754;2024-03-08T10:13:49;22.45;;;19.45;;
28003;SDS011;15330;51.234;6.754;2024-03-08T10:16:15;22.75;;;18.63;;
28003;SDS011;15330;51.234;6.754;2024-03-08T10:18:42;22.80;;;18.95;;
28003;SDS011;15330;51.234;6.754;2024-03-08T10:21:08;21.95;;;19.52;;
28003;SDS011;15330;51.234;6.754;2024-03-08T10:23:35;22.48;;;18.83;;
28003;SDS011;15330;51.234;6.754;2024-03-08T10:26:23;20.45;;;18.17;;
28003;SDS011;15330;51.234;6.754;2024-03-08T10:28:48;19.52;;;17.48;;
28003;SDS011;15330;51.234;6.754;2024-03-08T10:31:14;20.73;;;18.52;;
28003;SDS011;15330;51.234;6.754;2024-03-08T10:33:41;20.98;;;18.77;;
28003;SDS011;15330;51.234;6.754;2024-03-08T10:36:10;20.48;;;17.55;;
28003;SDS011;15330;51.234;6.754;2024-03-08T10:38:38;21.80;;;19.33;;
28003;SDS011;15330;51.234;6.754;2024-03-08T10:41:11;21.10;;;18.90;;
28003;SDS011;15330;51.234;6.754;2024-03-08T10:49:08;20.33;;;17.50;;
28003;SDS011;15330;51.234;6.754;2024-03-08T10:51:42;17.55;;;15.80;;
28003;SDS011;15330;51.234;6.754;2024-03-08T10:54:08;19.10;;;16.52;;
28003;SDS011;15330;51.234;6.754;2024-03-08T10:56:36;17.77;;;15.88;;
28003;SDS011;15330;51.234;6.754;2024-03-08T10:59:02;22.17;;;15.70;;
28003;SDS011;15330;51.234;6.754;2024-03-08T11:01:29;18.13;;;16.00;;
28003;SDS011;15330;51.234;6.754;2024-03-08T11:03:55;18.60;;;16.35;;
28003;SDS011;15330;51.234;6.754;2024-03-08T11:06:31;18.02;;;16.23;;
28003;SDS011;15330;51.234;6.754;2024-03-08T11:15:00;18.02;;;16.20;;
28003;SDS011;15330;51.234;6.754;2024-03-08T11:19:57;17.83;;;15.52;;
28003;SDS011;15330;51.234;6.754;2024-03-08T11:22:27;18.35;;;16.23;;
28003;SDS011;15330;51.234;6.754;2024-03-08T11:25:01;18.67;;;16.65;;
28003;SDS011;15330;51.234;6.754;2024-03-08T11:27:30;18.98;;;15.20;;
28003;SDS011;15330;51.234;6.754;2024-03-08T11:30:03;17.42;;;15.15;;
28003;SDS011;15330;51.234;6.754;2024-03-08T11:32:48;16.80;;;14.95;;
28003;SDS011;15330;51.234;6.754;2024-03-08T11:35:20;16.70;;;14.10;;
28003;SDS011;15330;51.234;6.754;2024-03-08T11:37:48;16.50;;;13.85;;
28003;SDS011;15330;51.234;6.754;2024-03-08T11:40:14;15.93;;;12.80;;
28003;SDS011;15330;51.234;6.754;2024-03-08T11:42:47;17.70;;;13.52;;
28003;SDS011;15330;51.234;6.754;2024-03-08T11:45:14;17.00;;;12.85;;
28003;SDS011;15330;51.234;6.754;2024-03-08T11:47:45;18.45;;;13.77;;
28003;SDS011;15330;51.234;6.754;2024-03-08T11:50:14;17.92;;;14.15;;
28003;SDS011;15330;51.234;6.754;2024-03-08T11:52:40;18.73;;;13.60;;
28003;SDS011;15330;51.234;6.754;2024-03-08T11:55:06;16.25;;;12.25;;
28003;SDS011;15330;51.234;6.754;2024-03-08T11:57:32;20.00;;;13.57;;
28003;SDS011;15330;51.234;6.754;2024-03-08T11:59:58;17.95;;;12.90;;
28003;SDS011;15330;51.234;6.754;2024-03-08T12:02:32;20.80;;;12.95;;
28003;SDS011;15330;51.234;6.754;2024-03-08T12:05:00;19.58;;;13.88;;
28003;SDS011;15330;51.234;6.754;2024-03-08T12:07:28;20.33;;;13.48;;
28003;SDS011;15330;51.234;6.754;2024-03-08T12:12:44;21.13;;;13.68;;
28003;SDS011;15330;51.234;6.754;2024-03-08T12:15:12;19.77;;;13.63;;
28003;SDS011;15330;51.234;6.754;2024-03-08T12:17:39;17.60;;;13.52;;
28003;SDS011;15330;51.234;6.754;2024-03-08T12:20:11;16.13;;;13.15;;
28003;SDS011;15330;51.234;6.754;2024-03-08T12:22:41;18.60;;;13.32;;
28003;SDS011;15330;51.234;6.754;2024-03-08T12:25:08;18.23;;;13.38;;
28003;SDS011;15330;51.234;6.754;2024-03-08T12:27:35;19.63;;;13.43;;
28003;SDS011;15330;51.234;6.754;2024-03-08T12:33:00;15.02;;;11.57;;
28003;SDS011;15330;51.234;6.754;2024-03-08T12:35:26;15.80;;;12.88;;
28003;SDS011;15330;51.234;6.754;2024-03-08T12:37:53;19.73;;;12.80;;
28003;SDS011;15330;51.234;6.754;2024-03-08T12:40:27;19.80;;;13.40;;
28003;SDS011;15330;51.234;6.754;2024-03-08T12:43:00;18.45;;;13.52;;
28003;SDS011;15330;51.234;6.754;2024-03-08T12:45:27;17.30;;;13.80;;
28003;SDS011;15330;51.234;6.754;2024-03-08T12:47:53;18.33;;;13.27;;
28003;SDS011;15330;51.234;6.754;2024-03-08T12:50:19;19.13;;;13.00;;
28003;SDS011;15330;51.234;6.754;2024-03-08T12:52:45;17.00;;;12.05;;
28003;SDS011;15330;51.234;6.754;2024-03-08T12:55:11;16.63;;;12.82;;
28003;SDS011;15330;51.234;6.754;2024-03-08T12:57:37;19.17;;;13.65;;
28003;SDS011;15330;51.234;6.754;2024-03-08T13:00:03;16.30;;;11.85;;
28003;SDS011;15330;51.234;6.754;2024-03-08T13:02:30;17.58;;;13.15;;
28003;SDS011;15330;51.234;6.754;2024-03-08T13:04:59;17.48;;;12.45;;
28003;SDS011;15330;51.234;6.754;2024-03-08T13:07:24;19.75;;;12.73;;
28003;SDS011;15330;51.234;6.754;2024-03-08T13:09:54;18.75;;;12.50;;
28003;SDS011;15330;51.234;6.754;2024-03-08T13:12:20;17.73;;;12.82;;
28003;SDS011;15330;51.234;6.754;2024-03-08T13:14:46;17.80;;;12.85;;
28003;SDS011;15330;51.234;6.754;2024-03-08T13:17:13;16.25;;;12.13;;
28003;SDS011;15330;51.234;6.754;2024-03-08T13:19:39;17.42;;;12.82;;
28003;SDS011;15330;51.234;6.754;2024-03-08T13:22:05;19.30;;;12.80;;
28003;SDS011;15330;51.234;6.754;2024-03-08T13:24:31;17.67;;;12.82;;
28003;SDS011;15330;51.234;6.754;2024-03-08T13:26:56;18.02;;;13.30;;
28003;SDS011;15330;51.234;6.754;2024-03-08T13:29:23;16.38;;;12.90;;
28003;SDS011;15330;51.234;6.754;2024-03-08T13:31:49;20.55;;;14.30;;
28003;SDS011;15330;51.234;6.754;2024-03-08T13:34:17;19.52;;;13.43;;
28003;SDS011;15330;51.234;6.754;2024-03-08T13:36:43;18.33;;;13.55;;
28003;SDS011;15330;51.234;6.754;2024-03-08T13:39:10;21.27;;;14.02;;
28003;SDS011;15330;51.234;6.754;2024-03-08T13:41:42;17.10;;;12.88;;
28003;SDS011;15330;51.234;6.754;2024-03-08T13:44:08;18.27;;;12.13;;
28003;SDS011;15330;51.234;6.754;2024-03-08T13:46:33;17.73;;;12.73;;
28003;SDS011;15330;51.234;6.754;2024-03-08T13:49:03;19.75;;;13.52;;
28003;SDS011;15330;51.234;6.754;2024-03-08T13:51:32;19.40;;;13.00;;
28003;SDS011;15330;51.234;6.754;2024-03-08T13:53:58;16.98;;;11.40;;
28003;SDS011;15330;51.234;6.754;2024-03-08T13:56:25;18.20;;;12.30;;
28003;SDS011;15330;51.234;6.754;2024-03-08T13:58:56;15.15;;;11.65;;
28003;SDS011;15330;51.234;6.754;2024-03-08T14:01:22;19.27;;;13.93;;
28003;SDS011;15330;51.234;6.754;2024-03-08T14:03:48;17.23;;;12.80;;
28003;SDS011;15330;51.234;6.754;2024-03-08T14:06:13;18.73;;;13.23;;
28003;SDS011;15330;51.234;6.754;2024-03-08T14:08:39;19.98;;;13.63;;
28003;SDS011;15330;51.234;6.754;2024-03-08T14:11:05;16.33;;;12.57;;
28003;SDS011;15330;51.234;6.754;2024-03-08T14:13:44;16.50;;;12.15;;
28003;SDS011;15330;51.234;6.754;2024-03-08T14:16:10;16.63;;;11.95;;
28003;SDS011;15330;51.234;6.754;2024-03-08T14:18:38;19.00;;;11.93;;
28003;SDS011;15330;51.234;6.754;2024-03-08T14:21:04;15.27;;;12.07;;
28003;SDS011;15330;51.234;6.754;2024-03-08T14:23:30;18.67;;;13.02;;
28003;SDS011;15330;51.234;6.754;2024-03-08T14:25:56;19.10;;;12.93;;
28003;SDS011;15330;51.234;6.754;2024-03-08T14:28:21;16.50;;;13.10;;
28003;SDS011;15330;51.234;6.754;2024-03-08T14:30:48;17.48;;;12.95;;
28003;SDS011;15330;51.234;6.754;2024-03-08T14:33:14;21.42;;;14.32;;
28003;SDS011;15330;51.234;6.754;2024-03-08T14:35:39;18.25;;;13.95;;
28003;SDS011;15330;51.234;6.754;2024-03-08T14:38:05;20.83;;;13.90;;